sensor_id;sensor_type;location;lat;lon;timestamp;P1;durP1;ratioP1;P2;durP2;ratioP2
52898;SDS011;38763;53.096;6.062;2023-06-26T00:00:52;8.60;;;6.75;;
52898;SDS011;38763;53.096;6.062;2023-06-26T00:03:18;8.25;;;6.50;;
52898;SDS011;38763;53.096;6.062;2023-06-26T00:05:43;11.32;;;6.68;;
52898;SDS011;38763;53.096;6.062;2023-06-26T00:08:09;10.93;;;6.63;;
52898;SDS011;38763;53.096;6.062;2023-06-26T00:10:35;8.35;;;6.30;;
52898;SDS011;38763;53.096;6.062;2023-06-26T00:13:00;11.00;;;6.68;;
52898;SDS011;38763;53.096;6.062;2023-06-26T00:15:27;9.98;;;6.45;;
52898;SDS011;38763;53.096;6.062;2023-06-26T00:17:56;9.55;;;6.40;;
52898;SDS011;38763;53.096;6.062;2023-06-26T00:20:22;9.02;;;6.53;;
52898;SDS011;38763;53.096;6.062;2023-06-26T00:22:50;9.23;;;6.90;;
52898;SDS011;38763;53.096;6.062;2023-06-26T00:25:15;9.18;;;6.60;;
52898;SDS011;38763;53.096;6.062;2023-06-26T00:27:41;9.57;;;6.18;;
52898;SDS011;38763;53.096;6.062;2023-06-26T00:30:07;11.98;;;7.15;;
52898;SDS011;38763;53.096;6.062;2023-06-26T00:32:33;9.13;;;6.75;;
52898;SDS011;38763;53.096;6.062;2023-06-26T00:34:58;11.73;;;7.22;;
52898;SDS011;38763;53.096;6.062;2023-06-26T00:37:24;9.85;;;6.72;;
52898;SDS011;38763;53.096;6.062;2023-06-26T00:39:50;10.05;;;6.78;;
52898;SDS011;38763;53.096;6.062;2023-06-26T00:42:15;9.88;;;7.18;;
52898;SDS011;38763;53.096;6.062;2023-06-26T00:44:41;9.55;;;6.80;;
52898;SDS011;38763;53.096;6.062;2023-06-26T00:47:06;10.15;;;6.68;;
52898;SDS011;38763;53.096;6.062;2023-06-26T00:49:33;9.15;;;6.53;;
52898;SDS011;38763;53.096;6.062;2023-06-26T00:51:59;11.70;;;6.88;;
52898;SDS011;38763;53.096;6.062;2023-06-26T00:54:24;11.30;;;7.05;;
52898;SDS011;38763;53.096;6.062;2023-06-26T00:56:51;10.65;;;7.00;;
52898;SDS011;38763;53.096;6.062;2023-06-26T00:59:16;10.02;;;7.47;;
52898;SDS011;38763;53.096;6.062;2023-06-26T01:01:42;11.38;;;6.97;;
52898;SDS011;38763;53.096;6.062;2023-06-26T01:04:08;9.23;;;6.78;;
52898;SDS011;38763;53.096;6.062;2023-06-26T01:06:42;13.10;;;7.55;;
52898;SDS011;38763;53.096;6.062;2023-06-26T01:09:14;10.55;;;8.30;;
52898;SDS011;38763;53.096;6.062;2023-06-26T01:11:42;10.80;;;7.07;;
52898;SDS011;38763;53.096;6.062;2023-06-26T01:14:07;11.10;;;7.38;;
52898;SDS011;38763;53.096;6.062;2023-06-26T01:16:33;9.95;;;6.78;;
52898;SDS011;38763;53.096;6.062;2023-06-26T01:19:01;10.80;;;7.03;;
52898;SDS011;38763;53.096;6.062;2023-06-26T01:21:34;11.63;;;7.47;;
52898;SDS011;38763;53.096;6.062;2023-06-26T01:24:07;11.00;;;7.50;;
52898;SDS011;38763;53.096;6.062;2023-06-26T01:26:45;10.25;;;6.90;;
52898;SDS011;38763;53.096;6.062;2023-06-26T01:29:13;11.02;;;7.40;;
52898;SDS011;38763;53.096;6.062;2023-06-26T01:31:41;14.43;;;7.70;;
52898;SDS011;38763;53.096;6.062;2023-06-26T01:34:08;11.88;;;7.47;;
52898;SDS011;38763;53.096;6.062;2023-06-26T01:36:34;10.93;;;7.55;;
52898;SDS011;38763;53.096;6.062;2023-06-26T01:39:00;11.50;;;7.57;;
52898;SDS011;38763;53.096;6.062;2023-06-26T01:41:26;12.32;;;8.13;;
52898;SDS011;38763;53.096;6.062;2023-06-26T01:44:05;11.10;;;7.65;;
52898;SDS011;38763;53.096;6.062;2023-06-26T01:47:01;14.65;;;8.10;;
52898;SDS011;38763;53.096;6.062;2023-06-26T01:54:37;11.70;;;7.90;;
52898;SDS011;38763;53.096;6.062;2023-06-26T01:57:08;11.35;;;7.97;;
52898;SDS011;38763;53.096;6.062;2023-06-26T01:59:34;11.50;;;7.90;;
52898;SDS011;38763;53.096;6.062;2023-06-26T02:02:02;10.60;;;7.97;;
52898;SDS011;38763;53.096;6.062;2023-06-26T02:04:31;13.75;;;8.73;;
52898;SDS011;38763;53.096;6.062;2023-06-26T02:06:57;11.00;;;7.88;;
52898;SDS011;38763;53.096;6.062;2023-06-26T02:09:22;12.10;;;8.48;;
52898;SDS011;38763;53.096;6.062;2023-06-26T02:11:48;11.27;;;8.25;;
52898;SDS011;38763;53.096;6.062;2023-06-26T02:14:14;10.65;;;7.93;;
52898;SDS011;38763;53.096;6.062;2023-06-26T02:16:39;12.68;;;9.40;;
52898;SDS011;38763;53.096;6.062;2023-06-26T02:19:05;12.00;;;9.30;;
52898;SDS011;38763;53.096;6.062;2023-06-26T02:21:30;14.20;;;9.18;;
52898;SDS011;38763;53.096;6.062;2023-06-26T02:23:56;13.18;;;9.55;;
52898;SDS011;38763;53.096;6.062;2023-06-26T02:26:21;12.93;;;9.73;;
52898;SDS011;38763;53.096;6.062;2023-06-26T02:28:47;12.65;;;8.93;;
52898;SDS011;38763;53.096;6.062;2023-06-26T02:31:13;12.77;;;9.65;;
52898;SDS011;38763;53.096;6.062;2023-06-26T02:33:38;13.00;;;9.75;;
52898;SDS011;38763;53.096;6.062;2023-06-26T02:36:04;12.23;;;9.63;;
52898;SDS011;38763;53.096;6.062;2023-06-26T02:38:30;12.52;;;9.65;;
52898;SDS011;38763;53.096;6.062;2023-06-26T02:40:55;13.40;;;10.05;;
52898;SDS011;38763;53.096;6.062;2023-06-26T02:43:21;13.95;;;10.10;;
52898;SDS011;38763;53.096;6.062;2023-06-26T02:45:47;14.07;;;9.75;;
52898;SDS011;38763;53.096;6.062;2023-06-26T02:48:12;15.07;;;10.32;;
52898;SDS011;38763;53.096;6.062;2023-06-26T02:50:38;13.30;;;10.70;;
52898;SDS011;38763;53.096;6.062;2023-06-26T02:53:03;14.02;;;10.75;;
52898;SDS011;38763;53.096;6.062;2023-06-26T02:55:29;15.57;;;11.15;;
52898;SDS011;38763;53.096;6.062;2023-06-26T02:57:55;12.05;;;9.63;;
52898;SDS011;38763;53.096;6.062;2023-06-26T03:00:20;17.85;;;10.48;;
52898;SDS011;38763;53.096;6.062;2023-06-26T03:02:46;13.95;;;9.85;;
52898;SDS011;38763;53.096;6.062;2023-06-26T03:05:12;13.18;;;9.93;;
52898;SDS011;38763;53.096;6.062;2023-06-26T03:07:38;15.60;;;9.02;;
52898;SDS011;38763;53.096;6.062;2023-06-26T03:10:04;12.18;;;8.98;;
52898;SDS011;38763;53.096;6.062;2023-06-26T03:12:30;12.32;;;8.32;;
52898;SDS011;38763;53.096;6.062;2023-06-26T03:14:56;14.60;;;8.10;;
52898;SDS011;38763;53.096;6.062;2023-06-26T03:17:21;12.32;;;8.18;;
52898;SDS011;38763;53.096;6.062;2023-06-26T03:19:47;11.82;;;7.32;;
52898;SDS011;38763;53.096;6.062;2023-06-26T03:22:13;11.40;;;7.90;;
52898;SDS011;38763;53.096;6.062;2023-06-26T03:24:38;14.60;;;7.90;;
52898;SDS011;38763;53.096;6.062;2023-06-26T03:27:04;12.75;;;7.50;;
52898;SDS011;38763;53.096;6.062;2023-06-26T03:29:30;11.77;;;6.68;;
52898;SDS011;38763;53.096;6.062;2023-06-26T03:31:56;14.82;;;7.32;;
52898;SDS011;38763;53.096;6.062;2023-06-26T03:34:21;10.18;;;6.90;;
52898;SDS011;38763;53.096;6.062;2023-06-26T03:36:47;10.75;;;6.80;;
52898;SDS011;38763;53.096;6.062;2023-06-26T03:39:13;12.63;;;6.60;;
52898;SDS011;38763;53.096;6.062;2023-06-26T03:41:38;10.75;;;6.60;;
52898;SDS011;38763;53.096;6.062;2023-06-26T03:44:04;12.85;;;7.07;;
52898;SDS011;38763;53.096;6.062;2023-06-26T03:46:30;12.90;;;6.63;;
52898;SDS011;38763;53.096;6.062;2023-06-26T03:48:55;11.90;;;7.38;;
52898;SDS011;38763;53.096;6.062;2023-06-26T03:51:21;14.10;;;7.10;;
52898;SDS011;38763;53.096;6.062;2023-06-26T03:53:47;14.38;;;7.75;;
52898;SDS011;38763;53.096;6.062;2023-06-26T03:56:12;15.75;;;7.43;;
52898;SDS011;38763;53.096;6.062;2023-06-26T03:58:39;12.98;;;7.30;;
52898;SDS011;38763;53.096;6.062;2023-06-26T04:01:04;17.40;;;7.45;;
52898;SDS011;38763;53.096;6.062;2023-06-26T04:03:30;15.75;;;7.65;;
52898;SDS011;38763;53.096;6.062;2023-06-26T04:05:56;15.75;;;7.90;;
52898;SDS011;38763;53.096;6.062;2023-06-26T04:08:23;16.13;;;8.48;;
52898;SDS011;38763;53.096;6.062;2023-06-26T04:10:51;13.88;;;7.80;;
52898;SDS011;38763;53.096;6.062;2023-06-26T04:13:17;16.42;;;8.02;;
52898;SDS011;38763;53.096;6.062;2023-06-26T04:15:43;16.48;;;8.07;;
52898;SDS011;38763;53.096;6.062;2023-06-26T04:18:08;17.33;;;8.32;;
52898;SDS011;38763;53.096;6.062;2023-06-26T04:20:38;17.15;;;8.60;;
52898;SDS011;38763;53.096;6.062;2023-06-26T04:23:05;16.30;;;8.27;;
52898;SDS011;38763;53.096;6.062;2023-06-26T04:25:30;17.75;;;9.10;;
52898;SDS011;38763;53.096;6.062;2023-06-26T04:27:56;16.05;;;9.05;;
52898;SDS011;38763;53.096;6.062;2023-06-26T04:30:21;15.70;;;8.60;;
52898;SDS011;38763;53.096;6.062;2023-06-26T04:32:47;17.55;;;8.63;;
52898;SDS011;38763;53.096;6.062;2023-06-26T04:35:13;18.63;;;9.20;;
52898;SDS011;38763;53.096;6.062;2023-06-26T04:37:38;19.10;;;8.70;;
52898;SDS011;38763;53.096;6.062;2023-06-26T04:40:05;20.85;;;9.05;;
52898;SDS011;38763;53.096;6.062;2023-06-26T04:42:32;20.42;;;9.18;;
52898;SDS011;38763;53.096;6.062;2023-06-26T04:44:58;19.27;;;8.98;;
52898;SDS011;38763;53.096;6.062;2023-06-26T04:47:23;16.58;;;8.35;;
52898;SDS011;38763;53.096;6.062;2023-06-26T04:49:49;15.63;;;7.95;;
52898;SDS011;38763;53.096;6.062;2023-06-26T04:52:15;13.48;;;6.88;;
52898;SDS011;38763;53.096;6.062;2023-06-26T04:54:40;15.15;;;7.25;;
52898;SDS011;38763;53.096;6.062;2023-06-26T04:57:06;16.83;;;6.40;;
52898;SDS011;38763;53.096;6.062;2023-06-26T04:59:33;15.45;;;6.55;;
52898;SDS011;38763;53.096;6.062;2023-06-26T05:01:59;16.17;;;6.25;;
52898;SDS011;38763;53.096;6.062;2023-06-26T05:04:25;20.15;;;6.55;;
52898;SDS011;38763;53.096;6.062;2023-06-26T05:06:50;15.50;;;4.90;;
52898;SDS011;38763;53.096;6.062;2023-06-26T05:09:16;12.18;;;4.30;;
52898;SDS011;38763;53.096;6.062;2023-06-26T05:11:41;15.55;;;4.60;;
52898;SDS011;38763;53.096;6.062;2023-06-26T05:14:07;18.05;;;4.95;;
52898;SDS011;38763;53.096;6.062;2023-06-26T05:16:34;14.68;;;4.68;;
52898;SDS011;38763;53.096;6.062;2023-06-26T05:19:00;15.88;;;4.53;;
52898;SDS011;38763;53.096;6.062;2023-06-26T05:21:25;10.48;;;4.47;;
52898;SDS011;38763;53.096;6.062;2023-06-26T05:23:51;15.35;;;5.20;;
52898;SDS011;38763;53.096;6.062;2023-06-26T05:26:20;19.25;;;4.82;;
52898;SDS011;38763;53.096;6.062;2023-06-26T05:28:46;13.07;;;4.30;;
52898;SDS011;38763;53.096;6.062;2023-06-26T05:31:14;16.33;;;4.85;;
52898;SDS011;38763;53.096;6.062;2023-06-26T05:33:40;19.58;;;4.28;;
52898;SDS011;38763;53.096;6.062;2023-06-26T05:36:08;15.25;;;4.00;;
52898;SDS011;38763;53.096;6.062;2023-06-26T05:38:34;15.27;;;4.32;;
52898;SDS011;38763;53.096;6.062;2023-06-26T05:41:00;22.77;;;4.20;;
52898;SDS011;38763;53.096;6.062;2023-06-26T05:43:26;15.25;;;4.10;;
52898;SDS011;38763;53.096;6.062;2023-06-26T05:45:52;14.70;;;4.75;;
52898;SDS011;38763;53.096;6.062;2023-06-26T05:48:17;19.10;;;4.25;;
52898;SDS011;38763;53.096;6.062;2023-06-26T05:50:43;15.32;;;4.03;;
52898;SDS011;38763;53.096;6.062;2023-06-26T05:53:10;13.32;;;3.70;;
52898;SDS011;38763;53.096;6.062;2023-06-26T05:55:36;16.27;;;3.75;;
52898;SDS011;38763;53.096;6.062;2023-06-26T05:58:02;11.18;;;3.05;;
52898;SDS011;38763;53.096;6.062;2023-06-26T06:00:28;14.35;;;3.00;;
52898;SDS011;38763;53.096;6.062;2023-06-26T06:02:54;13.98;;;3.22;;
52898;SDS011;38763;53.096;6.062;2023-06-26T06:05:20;12.57;;;3.35;;
52898;SDS011;38763;53.096;6.062;2023-06-26T06:07:47;13.88;;;3.55;;
52898;SDS011;38763;53.096;6.062;2023-06-26T06:10:13;11.27;;;3.80;;
52898;SDS011;38763;53.096;6.062;2023-06-26T06:12:39;12.80;;;3.17;;
52898;SDS011;38763;53.096;6.062;2023-06-26T06:15:05;15.68;;;3.60;;
52898;SDS011;38763;53.096;6.062;2023-06-26T06:17:31;10.68;;;2.92;;
52898;SDS011;38763;53.096;6.062;2023-06-26T06:19:57;10.90;;;3.00;;
52898;SDS011;38763;53.096;6.062;2023-06-26T06:22:22;6.57;;;2.55;;
52898;SDS011;38763;53.096;6.062;2023-06-26T06:24:48;10.20;;;2.63;;
52898;SDS011;38763;53.096;6.062;2023-06-26T06:27:15;12.07;;;2.80;;
52898;SDS011;38763;53.096;6.062;2023-06-26T06:29:41;9.38;;;2.42;;
52898;SDS011;38763;53.096;6.062;2023-06-26T06:32:06;8.43;;;2.50;;
52898;SDS011;38763;53.096;6.062;2023-06-26T06:34:32;11.25;;;2.67;;
52898;SDS011;38763;53.096;6.062;2023-06-26T06:36:58;10.32;;;2.60;;
52898;SDS011;38763;53.096;6.062;2023-06-26T06:39:23;8.48;;;2.20;;
52898;SDS011;38763;53.096;6.062;2023-06-26T06:41:49;9.68;;;2.45;;
52898;SDS011;38763;53.096;6.062;2023-06-26T06:44:15;11.40;;;2.78;;
52898;SDS011;38763;53.096;6.062;2023-06-26T06:46:40;9.40;;;2.20;;
52898;SDS011;38763;53.096;6.062;2023-06-26T06:49:08;8.20;;;2.42;;
52898;SDS011;38763;53.096;6.062;2023-06-26T06:51:34;9.35;;;2.70;;
52898;SDS011;38763;53.096;6.062;2023-06-26T06:54:00;13.80;;;2.40;;
52898;SDS011;38763;53.096;6.062;2023-06-26T06:56:27;13.35;;;2.65;;
52898;SDS011;38763;53.096;6.062;2023-06-26T06:58:53;8.70;;;2.40;;
52898;SDS011;38763;53.096;6.062;2023-06-26T07:01:18;10.85;;;2.47;;
52898;SDS011;38763;53.096;6.062;2023-06-26T07:03:44;13.32;;;2.40;;
52898;SDS011;38763;53.096;6.062;2023-06-26T07:06:09;7.75;;;2.00;;
52898;SDS011;38763;53.096;6.062;2023-06-26T07:08:35;9.88;;;2.08;;
52898;SDS011;38763;53.096;6.062;2023-06-26T07:11:01;6.47;;;1.80;;
52898;SDS011;38763;53.096;6.062;2023-06-26T07:13:26;9.35;;;1.83;;
52898;SDS011;38763;53.096;6.062;2023-06-26T07:15:52;5.05;;;1.42;;
52898;SDS011;38763;53.096;6.062;2023-06-26T07:18:18;6.47;;;1.70;;
52898;SDS011;38763;53.096;6.062;2023-06-26T07:20:43;7.95;;;1.85;;
52898;SDS011;38763;53.096;6.062;2023-06-26T07:23:09;5.35;;;1.60;;
52898;SDS011;38763;53.096;6.062;2023-06-26T07:25:35;3.83;;;1.60;;
52898;SDS011;38763;53.096;6.062;2023-06-26T07:28:01;5.72;;;1.70;;
52898;SDS011;38763;53.096;6.062;2023-06-26T07:30:27;4.68;;;1.60;;
52898;SDS011;38763;53.096;6.062;2023-06-26T07:32:52;8.30;;;1.80;;
52898;SDS011;38763;53.096;6.062;2023-06-26T07:35:18;6.75;;;1.83;;
52898;SDS011;38763;53.096;6.062;2023-06-26T07:37:44;6.95;;;1.90;;
52898;SDS011;38763;53.096;6.062;2023-06-26T07:40:09;6.18;;;1.90;;
52898;SDS011;38763;53.096;6.062;2023-06-26T07:42:35;3.60;;;1.60;;
52898;SDS011;38763;53.096;6.062;2023-06-26T07:45:01;5.90;;;1.60;;
52898;SDS011;38763;53.096;6.062;2023-06-26T07:47:30;5.53;;;1.80;;
52898;SDS011;38763;53.096;6.062;2023-06-26T07:49:55;4.80;;;1.40;;
52898;SDS011;38763;53.096;6.062;2023-06-26T07:52:21;5.55;;;1.70;;
52898;SDS011;38763;53.096;6.062;2023-06-26T07:54:47;6.40;;;1.92;;
52898;SDS011;38763;53.096;6.062;2023-06-26T07:57:12;5.90;;;1.75;;
52898;SDS011;38763;53.096;6.062;2023-06-26T07:59:38;4.90;;;1.70;;
52898;SDS011;38763;53.096;6.062;2023-06-26T08:02:04;4.75;;;1.80;;
52898;SDS011;38763;53.096;6.062;2023-06-26T08:04:30;5.60;;;2.20;;
52898;SDS011;38763;53.096;6.062;2023-06-26T08:06:57;9.20;;;2.10;;
52898;SDS011;38763;53.096;6.062;2023-06-26T08:09:25;6.30;;;2.10;;
52898;SDS011;38763;53.096;6.062;2023-06-26T08:11:52;5.50;;;2.20;;
52898;SDS011;38763;53.096;6.062;2023-06-26T08:14:18;4.88;;;1.65;;
52898;SDS011;38763;53.096;6.062;2023-06-26T08:16:44;6.75;;;1.88;;
52898;SDS011;38763;53.096;6.062;2023-06-26T08:19:11;5.88;;;2.08;;
52898;SDS011;38763;53.096;6.062;2023-06-26T08:21:37;7.00;;;2.55;;
52898;SDS011;38763;53.096;6.062;2023-06-26T08:24:03;8.50;;;2.22;;
52898;SDS011;38763;53.096;6.062;2023-06-26T08:26:28;5.65;;;1.90;;
52898;SDS011;38763;53.096;6.062;2023-06-26T08:28:54;6.20;;;2.20;;
52898;SDS011;38763;53.096;6.062;2023-06-26T08:31:19;5.57;;;1.73;;
52898;SDS011;38763;53.096;6.062;2023-06-26T08:33:45;7.85;;;2.03;;
52898;SDS011;38763;53.096;6.062;2023-06-26T08:36:12;8.07;;;2.10;;
52898;SDS011;38763;53.096;6.062;2023-06-26T08:38:38;6.03;;;1.80;;
52898;SDS011;38763;53.096;6.062;2023-06-26T08:41:05;7.60;;;2.22;;
52898;SDS011;38763;53.096;6.062;2023-06-26T08:43:35;7.13;;;1.77;;
52898;SDS011;38763;53.096;6.062;2023-06-26T08:46:01;7.22;;;2.30;;
52898;SDS011;38763;53.096;6.062;2023-06-26T08:48:31;8.07;;;1.90;;
52898;SDS011;38763;53.096;6.062;2023-06-26T08:51:04;8.98;;;1.85;;
52898;SDS011;38763;53.096;6.062;2023-06-26T08:56:06;8.45;;;2.28;;
52898;SDS011;38763;53.096;6.062;2023-06-26T08:58:34;9.48;;;2.53;;
52898;SDS011;38763;53.096;6.062;2023-06-26T09:01:02;9.63;;;2.35;;
52898;SDS011;38763;53.096;6.062;2023-06-26T09:03:30;8.35;;;2.25;;
52898;SDS011;38763;53.096;6.062;2023-06-26T09:05:56;9.35;;;2.55;;
52898;SDS011;38763;53.096;6.062;2023-06-26T09:08:22;9.07;;;2.63;;
52898;SDS011;38763;53.096;6.062;2023-06-26T09:10:48;5.70;;;2.20;;
52898;SDS011;38763;53.096;6.062;2023-06-26T09:13:13;8.27;;;2.58;;
52898;SDS011;38763;53.096;6.062;2023-06-26T09:15:42;7.90;;;2.83;;
52898;SDS011;38763;53.096;6.062;2023-06-26T09:18:09;8.02;;;2.80;;
52898;SDS011;38763;53.096;6.062;2023-06-26T09:20:35;6.85;;;2.50;;
52898;SDS011;38763;53.096;6.062;2023-06-26T09:23:01;8.65;;;2.60;;
52898;SDS011;38763;53.096;6.062;2023-06-26T09:25:27;6.53;;;2.50;;
52898;SDS011;38763;53.096;6.062;2023-06-26T09:27:54;8.45;;;2.75;;
52898;SDS011;38763;53.096;6.062;2023-06-26T09:30:20;8.52;;;2.58;;
52898;SDS011;38763;53.096;6.062;2023-06-26T09:32:46;7.05;;;2.40;;
52898;SDS011;38763;53.096;6.062;2023-06-26T09:35:13;6.82;;;2.58;;
52898;SDS011;38763;53.096;6.062;2023-06-26T09:37:39;5.97;;;2.55;;
52898;SDS011;38763;53.096;6.062;2023-06-26T09:40:05;5.78;;;2.53;;
52898;SDS011;38763;53.096;6.062;2023-06-26T09:42:32;6.80;;;2.30;;
52898;SDS011;38763;53.096;6.062;2023-06-26T09:44:57;7.38;;;2.70;;
52898;SDS011;38763;53.096;6.062;2023-06-26T09:47:23;9.45;;;2.58;;
52898;SDS011;38763;53.096;6.062;2023-06-26T09:49:49;5.80;;;2.30;;
52898;SDS011;38763;53.096;6.062;2023-06-26T09:52:16;6.60;;;2.15;;
52898;SDS011;38763;53.096;6.062;2023-06-26T09:54:42;5.55;;;2.00;;
52898;SDS011;38763;53.096;6.062;2023-06-26T09:57:12;7.25;;;2.22;;
52898;SDS011;38763;53.096;6.062;2023-06-26T09:59:39;4.97;;;2.00;;
52898;SDS011;38763;53.096;6.062;2023-06-26T10:02:05;4.90;;;2.13;;
52898;SDS011;38763;53.096;6.062;2023-06-26T10:04:31;8.02;;;2.38;;
52898;SDS011;38763;53.096;6.062;2023-06-26T10:06:58;7.93;;;2.42;;
52898;SDS011;38763;53.096;6.062;2023-06-26T10:09:28;8.82;;;2.53;;
52898;SDS011;38763;53.096;6.062;2023-06-26T10:14:35;5.57;;;2.13;;
52898;SDS011;38763;53.096;6.062;2023-06-26T10:17:03;6.75;;;2.20;;
52898;SDS011;38763;53.096;6.062;2023-06-26T10:19:32;5.25;;;1.85;;
52898;SDS011;38763;53.096;6.062;2023-06-26T10:21:59;6.70;;;2.15;;
52898;SDS011;38763;53.096;6.062;2023-06-26T10:24:28;6.85;;;1.80;;
52898;SDS011;38763;53.096;6.062;2023-06-26T10:29:53;5.57;;;1.88;;
52898;SDS011;38763;53.096;6.062;2023-06-26T10:32:20;9.55;;;2.08;;
52898;SDS011;38763;53.096;6.062;2023-06-26T10:34:50;5.43;;;2.15;;
52898;SDS011;38763;53.096;6.062;2023-06-26T10:37:16;7.75;;;1.90;;
52898;SDS011;38763;53.096;6.062;2023-06-26T10:39:48;5.35;;;1.90;;
52898;SDS011;38763;53.096;6.062;2023-06-26T10:42:15;5.88;;;1.83;;
52898;SDS011;38763;53.096;6.062;2023-06-26T10:44:43;10.10;;;1.70;;
52898;SDS011;38763;53.096;6.062;2023-06-26T10:47:11;8.40;;;1.75;;
52898;SDS011;38763;53.096;6.062;2023-06-26T10:49:54;4.80;;;1.88;;
52898;SDS011;38763;53.096;6.062;2023-06-26T10:52:20;8.18;;;1.80;;
52898;SDS011;38763;53.096;6.062;2023-06-26T10:54:45;7.85;;;1.83;;
52898;SDS011;38763;53.096;6.062;2023-06-26T10:57:11;8.15;;;1.80;;
52898;SDS011;38763;53.096;6.062;2023-06-26T10:59:49;5.72;;;1.35;;
52898;SDS011;38763;53.096;6.062;2023-06-26T11:02:51;4.70;;;1.38;;
52898;SDS011;38763;53.096;6.062;2023-06-26T11:05:28;7.32;;;1.58;;
52898;SDS011;38763;53.096;6.062;2023-06-26T11:08:04;5.90;;;1.77;;
52898;SDS011;38763;53.096;6.062;2023-06-26T11:10:54;7.43;;;1.92;;
52898;SDS011;38763;53.096;6.062;2023-06-26T11:13:25;10.90;;;1.80;;
52898;SDS011;38763;53.096;6.062;2023-06-26T11:15:51;6.72;;;1.40;;
52898;SDS011;38763;53.096;6.062;2023-06-26T11:18:17;5.57;;;1.75;;
52898;SDS011;38763;53.096;6.062;2023-06-26T11:20:43;5.10;;;1.40;;
52898;SDS011;38763;53.096;6.062;2023-06-26T11:23:08;6.07;;;1.40;;
52898;SDS011;38763;53.096;6.062;2023-06-26T11:25:35;5.25;;;1.60;;
52898;SDS011;38763;53.096;6.062;2023-06-26T11:28:03;7.35;;;1.92;;
52898;SDS011;38763;53.096;6.062;2023-06-26T11:30:29;6.50;;;1.52;;
52898;SDS011;38763;53.096;6.062;2023-06-26T11:33:02;8.10;;;1.38;;
52898;SDS011;38763;53.096;6.062;2023-06-26T11:35:29;9.65;;;1.50;;
52898;SDS011;38763;53.096;6.062;2023-06-26T11:37:58;7.40;;;1.50;;
52898;SDS011;38763;53.096;6.062;2023-06-26T11:40:28;6.53;;;1.60;;
52898;SDS011;38763;53.096;6.062;2023-06-26T11:42:59;7.50;;;1.45;;
52898;SDS011;38763;53.096;6.062;2023-06-26T11:45:30;6.25;;;1.42;;
52898;SDS011;38763;53.096;6.062;2023-06-26T11:47:57;5.40;;;1.55;;
52898;SDS011;38763;53.096;6.062;2023-06-26T11:50:23;10.35;;;1.98;;
52898;SDS011;38763;53.096;6.062;2023-06-26T11:52:56;7.45;;;1.50;;
52898;SDS011;38763;53.096;6.062;2023-06-26T11:55:23;9.80;;;1.92;;
52898;SDS011;38763;53.096;6.062;2023-06-26T11:57:49;8.55;;;1.60;;
52898;SDS011;38763;53.096;6.062;2023-06-26T12:00:17;7.03;;;1.30;;
52898;SDS011;38763;53.096;6.062;2023-06-26T12:02:46;7.32;;;1.70;;
52898;SDS011;38763;53.096;6.062;2023-06-26T12:05:15;9.27;;;1.80;;
52898;SDS011;38763;53.096;6.062;2023-06-26T12:07:47;7.90;;;1.40;;
52898;SDS011;38763;53.096;6.062;2023-06-26T12:10:14;15.77;;;1.92;;
52898;SDS011;38763;53.096;6.062;2023-06-26T12:12:42;6.93;;;1.60;;
52898;SDS011;38763;53.096;6.062;2023-06-26T12:15:08;6.57;;;1.50;;
52898;SDS011;38763;53.096;6.062;2023-06-26T12:20:17;6.38;;;1.67;;
52898;SDS011;38763;53.096;6.062;2023-06-26T12:22:45;5.55;;;1.73;;
52898;SDS011;38763;53.096;6.062;2023-06-26T12:25:12;11.93;;;1.85;;
52898;SDS011;38763;53.096;6.062;2023-06-26T12:27:38;6.35;;;1.50;;
52898;SDS011;38763;53.096;6.062;2023-06-26T12:30:04;4.28;;;1.70;;
52898;SDS011;38763;53.096;6.062;2023-06-26T12:32:30;7.93;;;1.58;;
52898;SDS011;38763;53.096;6.062;2023-06-26T12:34:57;6.80;;;1.50;;
52898;SDS011;38763;53.096;6.062;2023-06-26T12:37:23;10.50;;;2.05;;
52898;SDS011;38763;53.096;6.062;2023-06-26T12:39:52;9.20;;;1.80;;
52898;SDS011;38763;53.096;6.062;2023-06-26T12:42:20;5.63;;;1.65;;
52898;SDS011;38763;53.096;6.062;2023-06-26T12:44:46;5.53;;;1.80;;
52898;SDS011;38763;53.096;6.062;2023-06-26T12:47:13;8.05;;;1.88;;
52898;SDS011;38763;53.096;6.062;2023-06-26T12:49:43;8.63;;;1.88;;
52898;SDS011;38763;53.096;6.062;2023-06-26T12:52:10;7.05;;;1.75;;
52898;SDS011;38763;53.096;6.062;2023-06-26T12:54:38;7.80;;;1.70;;
52898;SDS011;38763;53.096;6.062;2023-06-26T12:57:05;7.50;;;1.80;;
52898;SDS011;38763;53.096;6.062;2023-06-26T12:59:32;7.22;;;1.85;;
52898;SDS011;38763;53.096;6.062;2023-06-26T13:01:58;10.27;;;2.05;;
52898;SDS011;38763;53.096;6.062;2023-06-26T13:04:25;10.40;;;2.60;;
52898;SDS011;38763;53.096;6.062;2023-06-26T13:06:51;6.97;;;1.60;;
52898;SDS011;38763;53.096;6.062;2023-06-26T13:09:20;7.38;;;1.63;;
52898;SDS011;38763;53.096;6.062;2023-06-26T13:11:46;7.50;;;1.60;;
52898;SDS011;38763;53.096;6.062;2023-06-26T13:14:12;9.48;;;1.90;;
52898;SDS011;38763;53.096;6.062;2023-06-26T13:16:38;6.40;;;1.50;;
52898;SDS011;38763;53.096;6.062;2023-06-26T13:19:04;7.30;;;1.70;;
52898;SDS011;38763;53.096;6.062;2023-06-26T13:21:30;8.57;;;1.83;;
52898;SDS011;38763;53.096;6.062;2023-06-26T13:23:56;12.48;;;2.10;;
52898;SDS011;38763;53.096;6.062;2023-06-26T13:26:22;11.30;;;1.88;;
52898;SDS011;38763;53.096;6.062;2023-06-26T13:28:48;9.02;;;1.75;;
52898;SDS011;38763;53.096;6.062;2023-06-26T13:31:14;10.90;;;1.90;;
52898;SDS011;38763;53.096;6.062;2023-06-26T13:33:40;10.88;;;1.77;;
52898;SDS011;38763;53.096;6.062;2023-06-26T13:36:06;5.88;;;1.42;;
52898;SDS011;38763;53.096;6.062;2023-06-26T13:38:33;6.00;;;1.50;;
52898;SDS011;38763;53.096;6.062;2023-06-26T13:40:59;8.52;;;1.60;;
52898;SDS011;38763;53.096;6.062;2023-06-26T13:43:28;6.50;;;1.50;;
52898;SDS011;38763;53.096;6.062;2023-06-26T13:45:54;6.97;;;1.75;;
52898;SDS011;38763;53.096;6.062;2023-06-26T13:48:21;8.48;;;1.80;;
52898;SDS011;38763;53.096;6.062;2023-06-26T13:50:49;7.20;;;1.58;;
52898;SDS011;38763;53.096;6.062;2023-06-26T13:53:15;7.63;;;1.45;;
52898;SDS011;38763;53.096;6.062;2023-06-26T13:55:40;9.25;;;1.67;;
52898;SDS011;38763;53.096;6.062;2023-06-26T13:58:07;8.52;;;1.50;;
52898;SDS011;38763;53.096;6.062;2023-06-26T14:00:33;12.30;;;1.75;;
52898;SDS011;38763;53.096;6.062;2023-06-26T14:03:00;4.97;;;1.60;;
52898;SDS011;38763;53.096;6.062;2023-06-26T14:05:26;8.18;;;1.70;;
52898;SDS011;38763;53.096;6.062;2023-06-26T14:07:52;9.30;;;1.83;;
52898;SDS011;38763;53.096;6.062;2023-06-26T14:10:19;4.97;;;1.80;;
52898;SDS011;38763;53.096;6.062;2023-06-26T14:12:45;5.47;;;1.52;;
52898;SDS011;38763;53.096;6.062;2023-06-26T14:15:11;8.18;;;1.52;;
52898;SDS011;38763;53.096;6.062;2023-06-26T14:17:37;4.85;;;1.38;;
52898;SDS011;38763;53.096;6.062;2023-06-26T14:20:05;9.02;;;1.70;;
52898;SDS011;38763;53.096;6.062;2023-06-26T14:22:35;9.43;;;1.98;;
52898;SDS011;38763;53.096;6.062;2023-06-26T14:25:01;10.63;;;1.98;;
52898;SDS011;38763;53.096;6.062;2023-06-26T14:27:27;9.20;;;1.85;;
52898;SDS011;38763;53.096;6.062;2023-06-26T14:29:53;5.50;;;1.60;;
52898;SDS011;38763;53.096;6.062;2023-06-26T14:32:19;6.07;;;1.70;;
52898;SDS011;38763;53.096;6.062;2023-06-26T14:34:44;11.52;;;1.95;;
52898;SDS011;38763;53.096;6.062;2023-06-26T14:37:10;8.23;;;1.85;;
52898;SDS011;38763;53.096;6.062;2023-06-26T14:39:36;7.47;;;1.80;;
52898;SDS011;38763;53.096;6.062;2023-06-26T14:42:03;7.78;;;1.50;;
52898;SDS011;38763;53.096;6.062;2023-06-26T14:44:29;13.52;;;1.88;;
52898;SDS011;38763;53.096;6.062;2023-06-26T14:46:55;7.53;;;1.90;;
52898;SDS011;38763;53.096;6.062;2023-06-26T14:49:21;6.43;;;1.45;;
52898;SDS011;38763;53.096;6.062;2023-06-26T14:51:47;7.13;;;1.58;;
52898;SDS011;38763;53.096;6.062;2023-06-26T14:54:12;5.68;;;1.55;;